createdAt,value
2022-09-14T00:00:23.803Z,98499.66
2022-09-14T00:04:27.852Z,98488.88
2022-09-14T00:08:30.625Z,98486.50
2022-09-14T00:12:33.769Z,98488.22
2022-09-14T00:16:40.535Z,98490.44
2022-09-14T00:20:44.805Z,98486.78
2022-09-14T00:24:48.861Z,98492.47
2022-09-14T00:29:01.498Z,98501.50
2022-09-14T00:33:05.100Z,98493.22
2022-09-14T00:37:08.487Z,98472.78
2022-09-14T00:41:15.630Z,98478.47
2022-09-14T00:45:23.011Z,98482.09
2022-09-14T00:49:42.912Z,98485.75
2022-09-14T00:53:47.340Z,98490.97
2022-09-14T00:57:54.488Z,98476.03
2022-09-14T01:02:00.346Z,98481.16
2022-09-14T01:06:42.176Z,98486.09
2022-09-14T01:11:38.703Z,98471.56
2022-09-14T01:16:03.935Z,98467.59
2022-09-14T01:20:25.418Z,98470.16
2022-09-14T01:25:12.950Z,98466.56
2022-09-14T01:29:35.680Z,98467.91
2022-09-14T01:33:53.555Z,98459.69
2022-09-14T01:38:11.973Z,98465.41
2022-09-14T01:42:20.194Z,98466.19
2022-09-14T01:46:33.443Z,98468.28
2022-09-14T01:50:56.644Z,98462.38
2022-09-14T01:55:14.844Z,98452.34
2022-09-14T01:59:32.030Z,98454.72
2022-09-14T02:03:48.611Z,98450.31
2022-09-14T02:07:52.637Z,98444.44
2022-09-14T02:12:00.995Z,98445.72
2022-09-14T02:16:06.330Z,98442.84
2022-09-14T02:20:16.374Z,98452.06
2022-09-14T02:24:19.603Z,98440.03
2022-09-14T02:28:22.486Z,98437.88
2022-09-14T02:32:44.135Z,98432.97
2022-09-14T02:36:59.587Z,98440.25
2022-09-14T02:41:10.858Z,98435.97
2022-09-14T02:45:22.362Z,98429.88
2022-09-14T02:49:56.123Z,98418.56
2022-09-14T02:54:11.423Z,98420.41
2022-09-14T02:58:15.779Z,98416.91
2022-09-14T03:02:18.976Z,98413.75
2022-09-14T03:06:21.858Z,98415.25
2022-09-14T03:10:25.370Z,98420.63
2022-09-14T03:14:30.198Z,98424.75
2022-09-14T03:18:33.771Z,98422.59
2022-09-14T03:22:36.347Z,98414.78
2022-09-14T03:26:40.150Z,98412.72
2022-09-14T03:30:42.851Z,98400.69
2022-09-14T03:34:46.214Z,98391.34
2022-09-14T03:38:51.721Z,98397.75
2022-09-14T03:42:56.939Z,98403.22
2022-09-14T03:47:00.000Z,98406.44
2022-09-14T03:51:03.444Z,98408.81
2022-09-14T03:55:09.559Z,98409.56
2022-09-14T03:59:14.732Z,98430.56
2022-09-14T04:03:18.442Z,98430.06
2022-09-14T04:07:21.947Z,98424.75
2022-09-14T04:11:26.019Z,98425.19
2022-09-14T04:15:29.001Z,98432.53
2022-09-14T04:19:35.574Z,98444.44
2022-09-14T04:23:56.948Z,98435.75
2022-09-14T04:28:17.091Z,98436.06
2022-09-14T04:32:22.880Z,98424.44
2022-09-14T04:36:29.513Z,98420.16
2022-09-14T04:40:31.916Z,98417.00
2022-09-14T04:44:35.240Z,98418.00
2022-09-14T04:48:37.914Z,98415.78
2022-09-14T04:52:41.041Z,98417.38
2022-09-14T04:56:44.922Z,98414.84
2022-09-14T05:00:48.509Z,98410.75
2022-09-14T05:04:51.196Z,98414.28
2022-09-14T05:08:55.299Z,98423.56
2022-09-14T05:12:58.436Z,98418.56
2022-09-14T05:17:02.978Z,98417.50
2022-09-14T05:21:08.393Z,98424.81
2022-09-14T05:25:11.419Z,98421.63
2022-09-14T05:29:16.047Z,98426.66
2022-09-14T05:33:18.268Z,98436.25
2022-09-14T05:37:21.091Z,98447.16
2022-09-14T05:41:23.258Z,98446.91
2022-09-14T05:45:25.278Z,98443.28
2022-09-14T05:49:27.241Z,98426.13
2022-09-14T05:53:29.506Z,98424.09
2022-09-14T05:57:31.584Z,98422.69
2022-09-14T06:01:34.189Z,98417.28
2022-09-14T06:05:36.551Z,98419.22
2022-09-14T06:09:38.558Z,98414.75
2022-09-14T06:13:41.818Z,98408.06
2022-09-14T06:17:43.802Z,98415.00
2022-09-14T06:21:45.778Z,98398.56
2022-09-14T06:25:47.876Z,98395.63
2022-09-14T06:29:52.257Z,98378.78
2022-09-14T06:33:54.502Z,98370.69
2022-09-14T06:37:56.671Z,98362.59
2022-09-14T06:41:58.623Z,98357.69
2022-09-14T06:46:06.895Z,98371.47
2022-09-14T06:50:09.183Z,98370.16
2022-09-14T06:54:13.545Z,98389.53
2022-09-14T06:58:15.620Z,98400.91
2022-09-14T07:02:17.714Z,98398.56
2022-09-14T07:06:22.106Z,98399.69
2022-09-14T07:10:28.175Z,98396.91
2022-09-14T07:14:32.345Z,98389.09
2022-09-14T07:18:35.861Z,98396.78
2022-09-14T07:22:37.958Z,98394.97
2022-09-14T07:26:42.488Z,98401.16
2022-09-14T07:30:44.594Z,98415.75
2022-09-14T07:34:47.203Z,98419.94
2022-09-14T07:38:52.506Z,98428.25
2022-09-14T07:42:57.604Z,98438.13
2022-09-14T07:47:00.086Z,98467.38
2022-09-14T07:51:07.984Z,98471.16
2022-09-14T07:55:12.609Z,98477.59
2022-09-14T08:03:40.282Z,98510.81
2022-09-14T08:07:42.413Z,98528.81
2022-09-14T08:11:44.313Z,98518.75
2022-09-14T08:15:46.311Z,98531.47
2022-09-14T08:19:48.521Z,98527.28
2022-09-14T08:23:50.817Z,98533.16
2022-09-14T08:27:52.893Z,98525.25
2022-09-14T08:31:55.273Z,98529.91
2022-09-14T08:35:58.427Z,98541.22
2022-09-14T08:40:00.592Z,98539.13
2022-09-14T08:44:13.761Z,98553.84
2022-09-14T08:48:31.207Z,98547.22
2022-09-14T08:52:36.317Z,98555.97
2022-09-14T08:56:43.549Z,98549.59
2022-09-14T09:01:02.939Z,98539.69
2022-09-14T09:06:03.601Z,98518.28
2022-09-14T09:10:06.872Z,98503.56
2022-09-14T09:14:22.457Z,98504.22
2022-09-14T09:18:27.406Z,98513.56
2022-09-14T09:22:35.779Z,98518.44
2022-09-14T09:26:38.967Z,98524.06
2022-09-14T09:30:41.476Z,98536.88
2022-09-14T09:34:43.595Z,98537.78
2022-09-14T09:38:55.687Z,98542.00
2022-09-14T09:43:06.947Z,98538.06
2022-09-14T09:47:09.089Z,98557.78
2022-09-14T09:51:20.897Z,98572.53
2022-09-14T09:55:36.454Z,98579.94
2022-09-14T09:59:44.341Z,98590.31
2022-09-14T10:04:02.135Z,98591.41
2022-09-14T10:08:11.271Z,98597.38
2022-09-14T10:12:16.711Z,98593.19
2022-09-14T10:16:21.297Z,98594.00
2022-09-14T10:20:25.768Z,98577.09
2022-09-14T10:24:27.966Z,98579.13
2022-09-14T10:28:32.864Z,98568.88
2022-09-14T10:32:36.155Z,98556.34
2022-09-14T10:36:47.434Z,98533.03
2022-09-14T10:40:58.450Z,98555.72
2022-09-14T10:45:17.155Z,98545.88
2022-09-14T10:49:26.600Z,98547.50
2022-09-14T10:53:41.796Z,98538.19
2022-09-14T10:57:57.111Z,98531.38
2022-09-14T11:02:33.506Z,98528.31
2022-09-14T11:06:44.764Z,98527.03
2022-09-14T11:11:18.031Z,98518.78
2022-09-14T11:15:37.345Z,98509.31
2022-09-14T11:19:54.721Z,98502.94
2022-09-14T11:24:02.240Z,98503.13
2022-09-14T11:28:11.865Z,98493.88
2022-09-14T11:32:21.711Z,98497.53
2022-09-14T11:36:31.577Z,98496.50
2022-09-14T11:40:40.670Z,98497.06
2022-09-14T11:44:45.336Z,98493.25
2022-09-14T11:48:50.632Z,98487.56
2022-09-14T11:53:08.967Z,98484.19
2022-09-14T11:57:18.182Z,98479.75
2022-09-14T12:01:28.476Z,98479.34
2022-09-14T12:05:32.599Z,98478.88
2022-09-14T12:09:41.639Z,98475.53
2022-09-14T12:13:43.750Z,98468.34
2022-09-14T12:17:45.909Z,98473.03
2022-09-14T12:21:48.256Z,98469.66
2022-09-14T12:26:19.903Z,98468.66
2022-09-14T12:30:41.499Z,98468.03
2022-09-14T12:34:43.608Z,98465.44
2022-09-14T12:38:55.395Z,98446.91
2022-09-14T12:42:57.396Z,98445.50
2022-09-14T12:47:26.142Z,98434.06
2022-09-14T12:51:31.627Z,98425.25
2022-09-14T12:55:48.728Z,98399.09
2022-09-14T13:00:17.341Z,98391.25
2022-09-14T13:04:27.342Z,98386.59
2022-09-14T13:08:29.552Z,98368.56
2022-09-14T13:12:34.504Z,98357.56
2022-09-14T13:16:36.478Z,98348.53
2022-09-14T13:20:38.425Z,98355.19
2022-09-14T13:24:45.181Z,98355.94
2022-09-14T13:28:52.039Z,98349.13
2022-09-14T13:32:56.833Z,98332.59
2022-09-14T13:37:01.383Z,98337.63
2022-09-14T13:41:19.854Z,98327.28
2022-09-14T13:45:23.352Z,98316.03
2022-09-14T13:49:26.090Z,98309.81
2022-09-14T13:53:37.838Z,98311.19
2022-09-14T13:57:39.857Z,98301.69
2022-09-14T14:01:46.598Z,98299.09
2022-09-14T14:05:48.684Z,98310.09
2022-09-14T14:09:53.579Z,98297.75
2022-09-14T14:13:55.877Z,98298.75
2022-09-14T14:17:58.056Z,98287.41
2022-09-14T14:22:34.383Z,98283.06
2022-09-14T14:26:36.513Z,98274.25
2022-09-14T14:30:40.615Z,98271.31
2022-09-14T14:34:42.866Z,98271.50
2022-09-14T14:38:47.742Z,98263.75
2022-09-14T14:42:51.597Z,98261.84
2022-09-14T14:46:54.369Z,98255.69
2022-09-14T14:50:56.838Z,98256.75
2022-09-14T14:55:01.226Z,98263.56
2022-09-14T14:59:03.699Z,98259.81
2022-09-14T15:03:05.838Z,98266.09
2022-09-14T15:07:07.964Z,98267.41
2022-09-14T15:11:18.316Z,98271.47
2022-09-14T15:15:26.712Z,98267.16
2022-09-14T15:19:28.908Z,98256.19
2022-09-14T15:23:31.206Z,98251.84
2022-09-14T15:27:33.489Z,98261.25
2022-09-14T15:31:35.578Z,98262.81
2022-09-14T15:35:39.195Z,98262.72
2022-09-14T15:39:41.205Z,98255.53
2022-09-14T15:43:43.842Z,98257.41
2022-09-14T15:47:47.115Z,98260.72
2022-09-14T15:51:51.785Z,98269.19
2022-09-14T15:55:53.740Z,98268.59
2022-09-14T15:59:57.438Z,98264.28
2022-09-14T16:04:01.347Z,98261.97
2022-09-14T16:08:03.688Z,98265.13
2022-09-14T16:12:07.255Z,98265.84
2022-09-14T16:16:11.615Z,98274.16
2022-09-14T16:20:13.802Z,98275.81
2022-09-14T16:24:18.336Z,98281.53
2022-09-14T16:28:20.728Z,98299.56
2022-09-14T16:32:22.706Z,98300.19
2022-09-14T16:36:27.898Z,98310.94
2022-09-14T16:40:29.914Z,98311.97
2022-09-14T16:44:32.000Z,98311.31
2022-09-14T16:48:35.465Z,98321.69
2022-09-14T16:52:37.806Z,98325.00
2022-09-14T16:56:39.857Z,98335.00
2022-09-14T17:00:44.199Z,98337.56
2022-09-14T17:04:46.679Z,98340.94
2022-09-14T17:08:49.456Z,98336.06
2022-09-14T17:12:51.448Z,98335.47
2022-09-14T17:16:53.649Z,98329.47
2022-09-14T17:21:00.917Z,98330.47
2022-09-14T17:25:03.019Z,98334.22
2022-09-14T17:29:06.727Z,98333.69
2022-09-14T17:33:09.252Z,98331.03
2022-09-14T17:37:11.632Z,98318.72
2022-09-14T17:41:15.794Z,98316.19
2022-09-14T17:45:17.872Z,98323.41
2022-09-14T17:49:22.159Z,98322.44
2022-09-14T17:53:24.206Z,98312.41
2022-09-14T17:57:26.218Z,98316.59
2022-09-14T18:01:28.797Z,98301.56
2022-09-14T18:05:31.884Z,98303.72
2022-09-14T18:09:34.063Z,98292.66
2022-09-14T18:13:40.686Z,98282.72
2022-09-14T18:17:44.758Z,98303.53
2022-09-14T18:21:51.624Z,98308.00
2022-09-14T18:25:55.299Z,98304.38
2022-09-14T18:29:57.907Z,98327.50
2022-09-14T18:34:00.864Z,98340.94
2022-09-14T18:38:02.937Z,98350.50
2022-09-14T18:42:05.523Z,98361.94
2022-09-14T18:46:08.125Z,98353.00
2022-09-14T18:50:10.747Z,98357.13
2022-09-14T18:54:13.961Z,98371.09
2022-09-14T18:58:16.068Z,98366.78
2022-09-14T19:02:18.136Z,98369.34
2022-09-14T19:06:20.526Z,98352.16
2022-09-14T19:10:22.847Z,98334.91
2022-09-14T19:14:25.745Z,98292.28
2022-09-14T19:18:27.712Z,98255.91
2022-09-14T19:22:29.741Z,98254.09
2022-09-14T19:26:45.751Z,98257.69
2022-09-14T19:30:50.145Z,98254.81
2022-09-14T19:34:52.203Z,98252.63
2022-09-14T19:38:58.278Z,98239.63
2022-09-14T19:43:00.468Z,98238.25
2022-09-14T19:47:03.037Z,98213.88
2022-09-14T19:51:08.320Z,98190.16
2022-09-14T19:55:12.284Z,98182.34
2022-09-14T19:59:14.462Z,98193.75
2022-09-14T20:03:17.314Z,98201.28
2022-09-14T20:07:19.309Z,98219.00
2022-09-14T20:11:23.547Z,98221.72
2022-09-14T20:15:25.941Z,98209.88
2022-09-14T20:19:29.389Z,98229.63
2022-09-14T20:23:31.403Z,98233.50
2022-09-14T20:27:33.509Z,98244.41
2022-09-14T20:31:35.878Z,98240.72
2022-09-14T20:35:37.874Z,98239.63
2022-09-14T20:39:40.020Z,98231.63
2022-09-14T20:43:42.543Z,98245.72
2022-09-14T20:47:45.398Z,98237.84
2022-09-14T20:51:47.578Z,98241.22
2022-09-14T20:55:51.652Z,98262.22
2022-09-14T20:59:54.271Z,98271.06
2022-09-14T21:04:06.058Z,98269.50
2022-09-14T21:08:09.014Z,98269.00
2022-09-14T21:12:14.112Z,98288.34
2022-09-14T21:16:19.041Z,98288.06
2022-09-14T21:20:21.074Z,98286.75
2022-09-14T21:24:25.135Z,98290.59
2022-09-14T21:28:28.295Z,98289.25
2022-09-14T21:32:31.034Z,98279.91
2022-09-14T21:36:41.333Z,98270.34
2022-09-14T21:40:45.311Z,98289.41
2022-09-14T21:44:47.313Z,98283.19
2022-09-14T21:48:49.286Z,98270.81
2022-09-14T21:52:51.241Z,98268.16
2022-09-14T21:56:54.263Z,98275.13
2022-09-14T22:01:01.312Z,98283.69
2022-09-14T22:05:03.979Z,98267.84
2022-09-14T22:09:06.538Z,98265.72
2022-09-14T22:13:08.492Z,98266.28
2022-09-14T22:17:12.032Z,98272.19
2022-09-14T22:21:14.094Z,98264.25
2022-09-14T22:25:16.173Z,98260.06
2022-09-14T22:29:18.797Z,98260.94
2022-09-14T22:33:25.292Z,98236.38
2022-09-14T22:37:27.246Z,98244.94
2022-09-14T22:41:30.214Z,98244.72
2022-09-14T22:45:32.391Z,98224.91
2022-09-14T22:49:34.385Z,98210.63
2022-09-14T22:53:37.056Z,98212.97
2022-09-14T22:57:39.447Z,98223.25
2022-09-14T23:01:42.045Z,98218.81
2022-09-14T23:05:55.628Z,98222.22
2022-09-14T23:09:57.912Z,98210.03
2022-09-14T23:14:00.166Z,98204.56
2022-09-14T23:18:02.117Z,98208.66
2022-09-14T23:22:04.822Z,98204.72
2022-09-14T23:26:11.747Z,98201.41
2022-09-14T23:30:14.072Z,98198.88
2022-09-14T23:34:16.944Z,98211.78
2022-09-14T23:38:19.167Z,98213.41
2022-09-14T23:42:21.088Z,98212.63
2022-09-14T23:46:23.881Z,98223.53
2022-09-14T23:50:26.671Z,98232.09
2022-09-14T23:54:28.877Z,98222.56
2022-09-14T23:58:31.690Z,98227.63
